createdAt,value
2016-12-10T00:00:53.347Z,1016.74
2016-12-10T00:01:53.328Z,1016.69
2016-12-10T00:02:53.312Z,1016.69
2016-12-10T00:03:53.295Z,1016.64
2016-12-10T00:04:53.299Z,1016.63
2016-12-10T00:05:53.268Z,1016.67
2016-12-10T00:06:53.247Z,1016.65
2016-12-10T00:07:53.229Z,1016.69
2016-12-10T00:08:53.213Z,1016.68
2016-12-10T00:09:53.197Z,1016.64
2016-12-10T00:10:53.384Z,1016.62
2016-12-10T00:11:53.166Z,1016.62
2016-12-10T00:12:53.148Z,1016.63
2016-12-10T00:13:53.133Z,1016.59
2016-12-10T00:14:53.116Z,1016.62
2016-12-10T00:15:53.102Z,1016.6
2016-12-10T00:16:53.086Z,1016.53
2016-12-10T00:17:53.069Z,1016.55
2016-12-10T00:18:53.052Z,1016.56
2016-12-10T00:19:53.036Z,1016.56
2016-12-10T00:20:53.019Z,1016.52
2016-12-10T00:21:53.003Z,1016.57
2016-12-10T00:22:52.987Z,1016.57
2016-12-10T00:23:52.971Z,1016.55
2016-12-10T00:24:52.955Z,1016.57
2016-12-10T00:25:52.936Z,1016.58
2016-12-10T00:26:52.920Z,1016.63
2016-12-10T00:27:52.907Z,1016.65
2016-12-10T00:28:52.890Z,1016.63
2016-12-10T00:29:52.873Z,1016.62
2016-12-10T00:30:52.856Z,1016.61
2016-12-10T00:31:52.843Z,1016.62
2016-12-10T00:32:52.825Z,1016.6
2016-12-10T00:33:52.807Z,1016.6
2016-12-10T00:34:52.790Z,1016.56
2016-12-10T00:35:52.774Z,1016.61
2016-12-10T00:36:52.758Z,1016.61
2016-12-10T00:37:52.741Z,1016.62
2016-12-10T00:38:52.724Z,1016.65
2016-12-10T00:39:52.709Z,1016.65
2016-12-10T00:40:52.695Z,1016.65
2016-12-10T00:41:52.678Z,1016.63
2016-12-10T00:42:52.665Z,1016.62
2016-12-10T00:43:52.645Z,1016.6
2016-12-10T00:44:52.625Z,1016.59
2016-12-10T00:45:52.610Z,1016.57
2016-12-10T00:46:52.594Z,1016.55
2016-12-10T00:47:52.579Z,1016.51
2016-12-10T00:48:52.564Z,1016.49
2016-12-10T00:49:52.546Z,1016.41
2016-12-10T00:50:52.529Z,1016.48
2016-12-10T00:51:52.512Z,1016.44
2016-12-10T00:52:52.497Z,1016.43
2016-12-10T00:53:52.479Z,1016.43
2016-12-10T00:54:52.469Z,1016.46
2016-12-10T00:55:52.446Z,1016.45
2016-12-10T00:56:52.430Z,1016.47
2016-12-10T00:57:52.414Z,1016.45
2016-12-10T00:58:52.397Z,1016.39
2016-12-10T00:59:52.382Z,1016.4
2016-12-10T01:00:52.365Z,1016.43
2016-12-10T01:01:52.350Z,1016.45
2016-12-10T01:02:52.332Z,1016.47
2016-12-10T01:03:52.316Z,1016.52
2016-12-10T01:04:52.300Z,1016.49
2016-12-10T01:05:52.284Z,1016.48
2016-12-10T01:06:52.268Z,1016.47
2016-12-10T01:07:52.251Z,1016.46
2016-12-10T01:08:52.235Z,1016.43
2016-12-10T01:09:52.222Z,1016.49
2016-12-10T01:10:52.203Z,1016.53
2016-12-10T01:11:52.185Z,1016.47
2016-12-10T01:12:52.168Z,1016.51
2016-12-10T01:13:52.153Z,1016.51
2016-12-10T01:14:52.136Z,1016.56
2016-12-10T01:15:52.125Z,1016.57
2016-12-10T01:16:52.105Z,1016.54
2016-12-10T01:17:52.088Z,1016.53
2016-12-10T01:18:52.071Z,1016.55
2016-12-10T01:19:52.055Z,1016.52
2016-12-10T01:20:52.037Z,1016.53
2016-12-10T01:21:52.019Z,1016.53
2016-12-10T01:22:52.006Z,1016.57
2016-12-10T01:23:51.987Z,1016.54
2016-12-10T01:24:51.987Z,1016.54
2016-12-10T01:25:51.956Z,1016.56
2016-12-10T01:26:51.937Z,1016.58
2016-12-10T01:27:51.924Z,1016.59
2016-12-10T01:28:51.903Z,1016.55
2016-12-10T01:29:51.888Z,1016.56
2016-12-10T01:30:51.871Z,1016.51
2016-12-10T01:31:51.856Z,1016.48
2016-12-10T01:32:51.838Z,1016.48
2016-12-10T01:33:51.819Z,1016.45
2016-12-10T01:34:51.804Z,1016.42
2016-12-10T01:35:51.786Z,1016.42
2016-12-10T01:36:51.771Z,1016.4
2016-12-10T01:37:51.753Z,1016.39
2016-12-10T01:38:51.737Z,1016.38
2016-12-10T01:39:51.722Z,1016.4
2016-12-10T01:40:51.703Z,1016.41
2016-12-10T01:41:51.693Z,1016.45
2016-12-10T01:42:51.671Z,1016.43
2016-12-10T01:43:51.655Z,1016.4
2016-12-10T01:44:51.635Z,1016.41
2016-12-10T01:45:51.622Z,1016.43
2016-12-10T01:46:51.602Z,1016.44
2016-12-10T01:47:51.586Z,1016.46
2016-12-10T01:48:51.567Z,1016.46
2016-12-10T01:49:51.551Z,1016.44
2016-12-10T01:50:51.535Z,1016.42
2016-12-10T01:51:51.519Z,1016.45
2016-12-10T01:52:51.500Z,1016.42
2016-12-10T01:53:51.488Z,1016.4
2016-12-10T01:54:51.466Z,1016.42
2016-12-10T01:55:51.451Z,1016.36
2016-12-10T01:56:51.434Z,1016.37
2016-12-10T01:57:51.415Z,1016.36
2016-12-10T01:58:51.399Z,1016.34
2016-12-10T01:59:51.384Z,1016.37
2016-12-10T02:00:51.366Z,1016.35
2016-12-10T02:01:51.349Z,1016.41
2016-12-10T02:02:51.332Z,1016.39
2016-12-10T02:03:51.315Z,1016.41
2016-12-10T02:04:51.298Z,1016.41
2016-12-10T02:05:51.283Z,1016.41
2016-12-10T02:06:51.265Z,1016.4
2016-12-10T02:07:51.251Z,1016.37
2016-12-10T02:08:51.230Z,1016.37
2016-12-10T02:09:51.212Z,1016.37
2016-12-10T02:10:51.400Z,1016.38
2016-12-10T02:11:51.179Z,1016.33
2016-12-10T02:12:51.164Z,1016.33
2016-12-10T02:13:51.145Z,1016.34
2016-12-10T02:14:51.131Z,1016.36
2016-12-10T02:15:51.112Z,1016.37
2016-12-10T02:16:51.097Z,1016.37
2016-12-10T02:17:51.080Z,1016.34
2016-12-10T02:18:51.064Z,1016.36
2016-12-10T02:19:51.045Z,1016.35
2016-12-10T02:20:51.028Z,1016.33
2016-12-10T02:21:51.012Z,1016.28
2016-12-10T02:22:50.995Z,1016.24
2016-12-10T02:23:50.978Z,1016.23
2016-12-10T02:24:50.963Z,1016.22
2016-12-10T02:25:50.946Z,1016.19
2016-12-10T02:26:50.930Z,1016.19
2016-12-10T02:27:50.912Z,1016.16
2016-12-10T02:28:50.894Z,1016.17
2016-12-10T02:29:50.879Z,1016.1
2016-12-10T02:30:50.861Z,1016.15
2016-12-10T02:31:50.844Z,1016.11
2016-12-10T02:32:50.827Z,1016.1
2016-12-10T02:33:50.808Z,1016.11
2016-12-10T02:34:50.792Z,1016.09
2016-12-10T02:35:50.776Z,1016.09
2016-12-10T02:36:50.759Z,1016.06
2016-12-10T02:37:50.745Z,1016.04
2016-12-10T02:38:50.725Z,1016.08
2016-12-10T02:39:50.707Z,1016.07
2016-12-10T02:40:50.694Z,1016.05
2016-12-10T02:41:50.674Z,1016.06
2016-12-10T02:42:50.656Z,1016.06
2016-12-10T02:43:50.641Z,1016.07
2016-12-10T02:44:50.622Z,1016.06
2016-12-10T02:45:50.607Z,1016.05
2016-12-10T02:46:50.594Z,1016.07
2016-12-10T02:47:50.577Z,1016.08
2016-12-10T02:48:50.561Z,1016.04
2016-12-10T02:49:50.540Z,1016.07
2016-12-10T02:50:50.522Z,1016.05
2016-12-10T02:51:50.502Z,1016.04
2016-12-10T02:52:50.517Z,1016.02
2016-12-10T02:53:50.471Z,1015.98
2016-12-10T02:54:50.452Z,1016.02
2016-12-10T02:55:50.438Z,1015.95
2016-12-10T02:56:50.417Z,1015.91
2016-12-10T02:57:50.402Z,1015.94
2016-12-10T02:58:50.383Z,1015.91
2016-12-10T02:59:50.366Z,1015.9
2016-12-10T03:00:50.348Z,1015.86
2016-12-10T03:01:50.331Z,1015.86
2016-12-10T03:02:50.315Z,1015.83
2016-12-10T03:03:50.297Z,1015.84
2016-12-10T03:04:50.279Z,1015.77
2016-12-10T03:05:50.265Z,1015.8
2016-12-10T03:06:50.245Z,1015.72
2016-12-10T03:07:50.229Z,1015.74
2016-12-10T03:08:50.212Z,1015.73
2016-12-10T03:09:50.194Z,1015.71
2016-12-10T03:10:50.182Z,1015.7
2016-12-10T03:11:50.159Z,1015.7
2016-12-10T03:12:50.145Z,1015.63
2016-12-10T03:13:50.126Z,1015.64
2016-12-10T03:14:50.109Z,1015.59
2016-12-10T03:15:50.091Z,1015.58
2016-12-10T03:16:50.073Z,1015.54
2016-12-10T03:17:50.056Z,1015.56
2016-12-10T03:18:50.040Z,1015.48
2016-12-10T03:19:50.021Z,1015.5
2016-12-10T03:20:50.004Z,1015.43
2016-12-10T03:21:49.987Z,1015.44
2016-12-10T03:22:49.972Z,1015.38
2016-12-10T03:23:49.953Z,1015.39
2016-12-10T03:24:49.937Z,1015.34
2016-12-10T03:25:49.919Z,1015.32
2016-12-10T03:26:49.902Z,1015.32
2016-12-10T03:27:49.884Z,1015.31
2016-12-10T03:28:49.866Z,1015.24
2016-12-10T03:29:49.851Z,1015.22
2016-12-10T03:30:49.833Z,1015.23
2016-12-10T03:31:49.819Z,1015.18
2016-12-10T03:32:49.799Z,1015.16
2016-12-10T03:33:49.781Z,1015.17
2016-12-10T03:34:49.765Z,1015.12
2016-12-10T03:35:49.749Z,1015.13
2016-12-10T03:36:49.730Z,1015.13
2016-12-10T03:37:49.713Z,1015.04
2016-12-10T03:38:49.696Z,1015
2016-12-10T03:39:49.679Z,1014.99
2016-12-10T03:40:49.660Z,1014.93
2016-12-10T03:41:49.645Z,1014.95
2016-12-10T03:42:49.628Z,1014.93
2016-12-10T03:43:49.608Z,1014.84
2016-12-10T03:44:49.590Z,1014.88
2016-12-10T03:45:49.577Z,1014.85
2016-12-10T03:46:49.556Z,1014.79
2016-12-10T03:47:49.538Z,1014.78
2016-12-10T03:48:49.525Z,1014.8
2016-12-10T03:49:49.505Z,1014.82
2016-12-10T03:50:49.485Z,1014.8
2016-12-10T03:51:49.471Z,1014.87
2016-12-10T03:52:49.452Z,1014.78
2016-12-10T03:53:49.436Z,1014.76
2016-12-10T03:54:49.416Z,1014.77
2016-12-10T03:55:49.406Z,1014.73
2016-12-10T03:56:49.383Z,1014.76
2016-12-10T03:57:49.365Z,1014.73
2016-12-10T03:58:49.348Z,1014.74
2016-12-10T03:59:49.329Z,1014.75
2016-12-10T04:00:49.312Z,1014.81
2016-12-10T04:01:49.295Z,1014.83
2016-12-10T04:02:49.280Z,1014.84
2016-12-10T04:03:49.261Z,1014.78
2016-12-10T04:04:49.245Z,1014.8
2016-12-10T04:05:49.240Z,1014.79
2016-12-10T04:06:49.211Z,1014.8
2016-12-10T04:07:49.196Z,1014.82
2016-12-10T04:08:49.199Z,1014.76
2016-12-10T04:09:49.160Z,1014.73
2016-12-10T04:10:49.342Z,1014.72
2016-12-10T04:11:49.122Z,1014.73
2016-12-10T04:12:49.105Z,1014.77
2016-12-10T04:13:49.087Z,1014.71
2016-12-10T04:14:49.070Z,1014.72
2016-12-10T04:15:49.054Z,1014.75
2016-12-10T04:16:49.036Z,1014.69
2016-12-10T04:17:49.019Z,1014.77
2016-12-10T04:18:49.001Z,1014.74
2016-12-10T04:19:48.984Z,1014.75
2016-12-10T04:20:48.970Z,1014.76
2016-12-10T04:21:48.950Z,1014.83
2016-12-10T04:22:48.933Z,1014.75
2016-12-10T04:23:48.915Z,1014.77
2016-12-10T04:24:48.900Z,1014.74
2016-12-10T04:25:48.882Z,1014.77
2016-12-10T04:26:48.863Z,1014.72
2016-12-10T04:27:48.846Z,1014.77
2016-12-10T04:28:48.829Z,1014.72
2016-12-10T04:29:48.812Z,1014.72
2016-12-10T04:30:48.796Z,1014.76
2016-12-10T04:31:48.776Z,1014.75
2016-12-10T04:32:48.760Z,1014.75
2016-12-10T04:33:48.743Z,1014.73
2016-12-10T04:34:48.725Z,1014.68
2016-12-10T04:35:48.708Z,1014.7
2016-12-10T04:36:48.691Z,1014.69
2016-12-10T04:37:48.675Z,1014.72
2016-12-10T04:38:48.656Z,1014.7
2016-12-10T04:39:48.639Z,1014.75
2016-12-10T04:40:48.624Z,1014.78
2016-12-10T04:41:48.605Z,1014.69
2016-12-10T04:42:48.590Z,1014.71
2016-12-10T04:43:48.571Z,1014.7
2016-12-10T04:44:48.554Z,1014.69
2016-12-10T04:45:48.536Z,1014.69
2016-12-10T04:46:48.520Z,1014.69
2016-12-10T04:47:48.503Z,1014.69
2016-12-10T04:48:48.485Z,1014.58
2016-12-10T04:49:48.469Z,1014.66
2016-12-10T04:50:48.450Z,1014.65
2016-12-10T04:51:48.433Z,1014.66
2016-12-10T04:52:48.417Z,1014.68
2016-12-10T04:53:48.400Z,1014.7
2016-12-10T04:54:48.386Z,1014.73
2016-12-10T04:55:48.366Z,1014.71
2016-12-10T04:56:48.346Z,1014.68
2016-12-10T04:57:48.331Z,1014.74
2016-12-10T04:58:48.315Z,1014.73
2016-12-10T04:59:48.298Z,1014.72
2016-12-10T05:00:48.279Z,1014.71
2016-12-10T05:01:48.264Z,1014.74
2016-12-10T05:02:48.246Z,1014.74
2016-12-10T05:03:48.229Z,1014.74
2016-12-10T05:04:48.215Z,1014.69
2016-12-10T05:05:48.196Z,1014.71
2016-12-10T05:06:48.179Z,1014.71
2016-12-10T05:07:48.162Z,1014.67
2016-12-10T05:08:48.145Z,1014.66
2016-12-10T05:09:48.128Z,1014.62
2016-12-10T05:10:48.109Z,1014.63
2016-12-10T05:11:48.099Z,1014.59
2016-12-10T05:12:48.078Z,1014.63
2016-12-10T05:13:48.062Z,1014.54
2016-12-10T05:14:48.044Z,1014.55
2016-12-10T05:15:48.025Z,1014.56
2016-12-10T05:16:48.007Z,1014.5
2016-12-10T05:17:47.991Z,1014.55
2016-12-10T05:18:47.975Z,1014.55
2016-12-10T05:19:47.959Z,1014.5
2016-12-10T05:20:47.939Z,1014.49
2016-12-10T05:21:47.920Z,1014.48
2016-12-10T05:22:47.905Z,1014.42
2016-12-10T05:23:47.887Z,1014.35
2016-12-10T05:24:47.876Z,1014.39
2016-12-10T05:25:47.856Z,1014.39
2016-12-10T05:26:47.846Z,1014.34
2016-12-10T05:27:47.822Z,1014.32
2016-12-10T05:28:47.803Z,1014.28
2016-12-10T05:29:47.786Z,1014.22
2016-12-10T05:30:47.768Z,1014.25
2016-12-10T05:31:47.760Z,1014.28
2016-12-10T05:32:47.739Z,1014.29
2016-12-10T05:33:47.719Z,1014.3
2016-12-10T05:34:47.700Z,1014.31
2016-12-10T05:35:47.684Z,1014.37
2016-12-10T05:36:47.666Z,1014.33
2016-12-10T05:37:47.649Z,1014.3
2016-12-10T05:38:47.631Z,1014.26
2016-12-10T05:39:47.616Z,1014.23
2016-12-10T05:40:47.598Z,1014.26
2016-12-10T05:41:47.581Z,1014.16
2016-12-10T05:42:47.564Z,1014.19
2016-12-10T05:43:47.547Z,1014.23
2016-12-10T05:44:47.530Z,1014.16
2016-12-10T05:45:47.515Z,1014.17
2016-12-10T05:46:47.497Z,1014.19
2016-12-10T05:47:47.478Z,1014.21
2016-12-10T05:48:47.462Z,1014.16
2016-12-10T05:49:47.444Z,1014.21
2016-12-10T05:50:47.428Z,1014.21
2016-12-10T05:51:47.410Z,1014.18
2016-12-10T05:52:47.392Z,1014.2
2016-12-10T05:53:47.376Z,1014.15
2016-12-10T05:54:47.358Z,1014.12
2016-12-10T05:55:47.341Z,1014.12
2016-12-10T05:56:47.325Z,1014.07
2016-12-10T05:57:47.309Z,1014.06
2016-12-10T05:58:47.290Z,1014.08
2016-12-10T05:59:47.274Z,1014.08
2016-12-10T06:00:47.258Z,1014.16
2016-12-10T06:01:47.240Z,1014.15
2016-12-10T06:02:47.222Z,1014.21
2016-12-10T06:03:47.206Z,1014.23
2016-12-10T06:04:47.188Z,1014.2
2016-12-10T06:05:47.171Z,1014.27
2016-12-10T06:06:47.153Z,1014.21
2016-12-10T06:07:47.137Z,1014.22
2016-12-10T06:08:47.120Z,1014.3
2016-12-10T06:09:47.105Z,1014.3
2016-12-10T06:10:47.088Z,1014.32
2016-12-10T06:11:47.069Z,1014.3
2016-12-10T06:12:47.052Z,1014.34
2016-12-10T06:13:47.034Z,1014.31
2016-12-10T06:14:47.018Z,1014.29
2016-12-10T06:15:47.002Z,1014.36
2016-12-10T06:16:46.982Z,1014.41
2016-12-10T06:17:46.966Z,1014.47
2016-12-10T06:18:46.950Z,1014.5
2016-12-10T06:19:46.933Z,1014.61
2016-12-10T06:20:46.916Z,1014.53
2016-12-10T06:21:46.898Z,1014.61
2016-12-10T06:22:46.882Z,1014.59
2016-12-10T06:23:46.868Z,1014.65
2016-12-10T06:24:46.848Z,1014.63
2016-12-10T06:25:46.830Z,1014.65
2016-12-10T06:26:46.814Z,1014.61
2016-12-10T06:27:46.798Z,1014.63
2016-12-10T06:28:46.782Z,1014.66
2016-12-10T06:29:46.764Z,1014.65
2016-12-10T06:30:46.748Z,1014.64
2016-12-10T06:31:46.729Z,1014.69
2016-12-10T06:32:46.716Z,1014.78
2016-12-10T06:33:46.697Z,1014.7
2016-12-10T06:34:46.681Z,1014.7
2016-12-10T06:35:46.666Z,1014.73
2016-12-10T06:36:46.646Z,1014.77
2016-12-10T06:37:46.629Z,1014.79
2016-12-10T06:38:46.613Z,1014.8
2016-12-10T06:39:46.595Z,1014.78
2016-12-10T06:40:46.580Z,1014.82
2016-12-10T06:41:46.564Z,1014.75
2016-12-10T06:42:46.545Z,1014.7
2016-12-10T06:43:46.528Z,1014.83
2016-12-10T06:44:46.512Z,1014.8
2016-12-10T06:45:46.495Z,1014.83
2016-12-10T06:46:46.477Z,1014.8
2016-12-10T06:47:46.464Z,1014.79
2016-12-10T06:48:46.446Z,1014.83
2016-12-10T06:49:46.434Z,1014.82
2016-12-10T06:50:46.409Z,1014.82
2016-12-10T06:51:46.397Z,1014.79
2016-12-10T06:52:46.376Z,1014.77
2016-12-10T06:53:46.367Z,1014.8
2016-12-10T06:54:46.346Z,1014.78
2016-12-10T06:55:46.328Z,1014.81
2016-12-10T06:56:46.315Z,1014.78
2016-12-10T06:57:46.294Z,1014.82
2016-12-10T06:58:46.275Z,1014.79
2016-12-10T06:59:46.262Z,1014.75
2016-12-10T07:00:46.242Z,1014.81
2016-12-10T07:01:46.225Z,1014.77
2016-12-10T07:02:46.209Z,1014.74
2016-12-10T07:03:46.191Z,1014.78
2016-12-10T07:04:46.174Z,1014.77
2016-12-10T07:05:46.162Z,1014.72
2016-12-10T07:06:46.141Z,1014.72
2016-12-10T07:07:46.122Z,1014.69
2016-12-10T07:08:46.106Z,1014.73
2016-12-10T07:09:46.091Z,1014.73
2016-12-10T07:10:46.073Z,1014.75
2016-12-10T07:11:46.056Z,1014.77
2016-12-10T07:12:46.040Z,1014.77
2016-12-10T07:13:46.024Z,1014.75
2016-12-10T07:14:46.007Z,1014.83
2016-12-10T07:15:45.988Z,1014.81
2016-12-10T07:16:45.973Z,1014.75
2016-12-10T07:17:45.957Z,1014.85
2016-12-10T07:18:45.939Z,1014.83
2016-12-10T07:19:45.924Z,1014.82
2016-12-10T07:20:45.904Z,1014.85
2016-12-10T07:21:45.888Z,1014.88
2016-12-10T07:22:45.870Z,1014.86
2016-12-10T07:23:45.854Z,1014.85
2016-12-10T07:24:45.837Z,1014.83
2016-12-10T07:25:45.822Z,1014.82
2016-12-10T07:26:45.804Z,1014.79
2016-12-10T07:27:45.788Z,1014.79
2016-12-10T07:28:45.771Z,1014.77
2016-12-10T07:29:45.754Z,1014.73
2016-12-10T07:30:45.735Z,1014.79
2016-12-10T07:31:45.718Z,1014.81
2016-12-10T07:32:45.702Z,1014.9
2016-12-10T07:33:45.686Z,1014.79
2016-12-10T07:34:45.670Z,1014.83
2016-12-10T07:35:45.653Z,1014.81
2016-12-10T07:36:45.640Z,1014.83
2016-12-10T07:37:45.621Z,1014.86
2016-12-10T07:38:45.600Z,1014.84
2016-12-10T07:39:45.585Z,1014.88
2016-12-10T07:40:45.567Z,1014.89
2016-12-10T07:41:45.550Z,1014.91
2016-12-10T07:42:45.533Z,1014.89
2016-12-10T07:43:45.516Z,1014.9
2016-12-10T07:44:45.502Z,1014.88
2016-12-10T07:45:45.483Z,1014.91
2016-12-10T07:46:45.466Z,1014.91
2016-12-10T07:47:45.448Z,1014.96
2016-12-10T07:48:45.431Z,1014.87
2016-12-10T07:49:45.416Z,1014.83
2016-12-10T07:50:45.398Z,1014.83
2016-12-10T07:51:45.378Z,1014.85
2016-12-10T07:52:45.362Z,1014.8
2016-12-10T07:53:45.345Z,1014.84
2016-12-10T07:54:45.328Z,1014.83
2016-12-10T07:55:45.312Z,1014.78
2016-12-10T07:56:45.295Z,1014.83
2016-12-10T07:57:45.279Z,1014.77
2016-12-10T07:58:45.260Z,1014.75
2016-12-10T07:59:45.243Z,1014.71
2016-12-10T08:00:45.226Z,1014.71
2016-12-10T08:01:45.209Z,1014.76
2016-12-10T08:02:45.193Z,1014.71
2016-12-10T08:03:45.174Z,1014.69
2016-12-10T08:04:45.156Z,1014.71
2016-12-10T08:05:45.141Z,1014.74
2016-12-10T08:06:45.122Z,1014.7
2016-12-10T08:07:45.122Z,1014.73
2016-12-10T08:08:45.091Z,1014.73
2016-12-10T08:09:45.073Z,1014.74
2016-12-10T08:10:45.055Z,1014.82
2016-12-10T08:11:45.244Z,1014.82
2016-12-10T08:12:45.025Z,1014.82
2016-12-10T08:13:45.006Z,1014.85
2016-12-10T08:14:44.988Z,1014.86
2016-12-10T08:15:44.977Z,1014.87
2016-12-10T08:16:44.961Z,1014.84
2016-12-10T08:17:44.942Z,1014.79
2016-12-10T08:18:44.923Z,1014.81
2016-12-10T08:19:44.906Z,1014.76
2016-12-10T08:20:44.888Z,1014.76
2016-12-10T08:21:44.871Z,1014.78
2016-12-10T08:22:44.854Z,1014.81
2016-12-10T08:23:44.838Z,1014.74
2016-12-10T08:24:44.823Z,1014.76
2016-12-10T08:25:44.803Z,1014.71
2016-12-10T08:26:44.787Z,1014.73
2016-12-10T08:27:44.771Z,1014.71
2016-12-10T08:28:44.753Z,1014.74
2016-12-10T08:29:44.736Z,1014.79
2016-12-10T08:30:44.721Z,1014.86
2016-12-10T08:31:44.703Z,1014.81
2016-12-10T08:32:44.687Z,1014.86
2016-12-10T08:33:44.672Z,1014.85
2016-12-10T08:34:44.654Z,1014.87
2016-12-10T08:35:44.637Z,1014.85
2016-12-10T08:36:44.619Z,1014.87
2016-12-10T08:37:44.604Z,1014.96
2016-12-10T08:38:44.588Z,1014.88
2016-12-10T08:39:44.570Z,1014.87
2016-12-10T08:40:44.554Z,1014.85
2016-12-10T08:41:44.538Z,1014.92
2016-12-10T08:42:44.520Z,1014.87
2016-12-10T08:43:44.505Z,1014.89
2016-12-10T08:44:44.491Z,1015
2016-12-10T08:45:44.472Z,1014.91
2016-12-10T08:46:44.456Z,1014.86
2016-12-10T08:47:44.441Z,1014.91
2016-12-10T08:48:44.425Z,1014.89
2016-12-10T08:49:44.406Z,1014.93
2016-12-10T08:50:44.389Z,1014.96
2016-12-10T08:51:44.373Z,1015
2016-12-10T08:52:44.357Z,1015
2016-12-10T08:53:44.340Z,1015.02
2016-12-10T08:54:44.324Z,1015
2016-12-10T08:55:44.309Z,1014.95
2016-12-10T08:56:44.292Z,1014.89
2016-12-10T08:57:44.274Z,1014.91
2016-12-10T08:58:44.260Z,1014.92
2016-12-10T08:59:44.241Z,1014.89
2016-12-10T09:00:44.226Z,1014.85
2016-12-10T09:01:44.210Z,1015
2016-12-10T09:02:44.192Z,1014.9
2016-12-10T09:03:44.178Z,1014.94
2016-12-10T09:04:44.162Z,1014.9
2016-12-10T09:05:44.144Z,1014.93
2016-12-10T09:06:44.129Z,1014.93
2016-12-10T09:07:44.120Z,1014.93
2016-12-10T09:08:44.097Z,1014.91
2016-12-10T09:09:44.079Z,1014.86
2016-12-10T09:10:44.064Z,1014.86
2016-12-10T09:11:44.048Z,1014.86
2016-12-10T09:12:44.031Z,1014.87
2016-12-10T09:13:44.014Z,1014.9
2016-12-10T09:14:43.999Z,1014.91
2016-12-10T09:15:43.981Z,1015
2016-12-10T09:16:43.968Z,1015.03
2016-12-10T09:17:43.952Z,1015.08
2016-12-10T09:18:43.935Z,1015.09
2016-12-10T09:19:43.923Z,1015.08
2016-12-10T09:20:43.902Z,1015.08
2016-12-10T09:21:43.886Z,1015.14
2016-12-10T09:22:43.874Z,1015.15
2016-12-10T09:23:43.854Z,1015.16
2016-12-10T09:24:43.839Z,1015.15
2016-12-10T09:25:43.825Z,1015.17
2016-12-10T09:26:43.810Z,1015.3
2016-12-10T09:27:43.792Z,1015.16
2016-12-10T09:28:43.778Z,1015.15
2016-12-10T09:29:43.760Z,1015.11
2016-12-10T09:30:43.745Z,1015.13
2016-12-10T09:31:43.730Z,1015.09
2016-12-10T09:32:43.715Z,1015.05
2016-12-10T09:33:43.700Z,1015.05
2016-12-10T09:34:43.684Z,1015.03
2016-12-10T09:35:43.668Z,1015
2016-12-10T09:36:43.734Z,1015.14
2016-12-10T09:37:43.636Z,1015.07
2016-12-10T09:38:43.620Z,1015.08
2016-12-10T09:39:43.604Z,1015.11
2016-12-10T09:40:43.590Z,1015.02
2016-12-10T09:41:43.572Z,1015.01
2016-12-10T09:42:43.559Z,1014.98
2016-12-10T09:43:43.543Z,1014.96
2016-12-10T09:44:43.527Z,1014.94
2016-12-10T09:45:43.510Z,1014.92
2016-12-10T09:46:43.503Z,1014.94
2016-12-10T09:47:43.483Z,1014.9
2016-12-10T09:48:43.467Z,1014.88
2016-12-10T09:49:43.449Z,1014.9
2016-12-10T09:50:43.433Z,1014.89
2016-12-10T09:51:43.418Z,1014.95
2016-12-10T09:52:43.399Z,1014.96
2016-12-10T09:53:43.388Z,1015
2016-12-10T09:54:43.371Z,1015.04
2016-12-10T09:55:43.355Z,1015.05
2016-12-10T09:56:43.338Z,1015.02
2016-12-10T09:57:43.323Z,1015.01
2016-12-10T09:58:43.306Z,1015.03
2016-12-10T09:59:43.292Z,1015.03
2016-12-10T10:00:43.276Z,1014.95
2016-12-10T10:01:43.259Z,1014.94
2016-12-10T10:02:43.249Z,1014.93
2016-12-10T10:03:43.227Z,1014.96
2016-12-10T10:04:43.213Z,1014.91
2016-12-10T10:05:43.199Z,1014.96
2016-12-10T10:06:43.181Z,1014.98
2016-12-10T10:07:43.165Z,1014.94
2016-12-10T10:08:43.150Z,1014.89
2016-12-10T10:09:43.136Z,1014.91
2016-12-10T10:10:43.119Z,1014.89
2016-12-10T10:11:43.304Z,1014.85
2016-12-10T10:12:43.087Z,1014.84
2016-12-10T10:13:43.074Z,1014.83
2016-12-10T10:14:43.055Z,1014.84
2016-12-10T10:15:43.041Z,1014.83
2016-12-10T10:16:43.025Z,1014.85
2016-12-10T10:17:43.009Z,1014.83
2016-12-10T10:18:42.994Z,1014.82
2016-12-10T10:19:42.981Z,1014.86
2016-12-10T10:20:42.962Z,1014.81
2016-12-10T10:21:42.946Z,1014.74
2016-12-10T10:22:42.932Z,1014.72
2016-12-10T10:23:42.916Z,1014.68
2016-12-10T10:24:42.951Z,1014.71
2016-12-10T10:25:42.886Z,1014.71
2016-12-10T10:26:42.886Z,1014.81
2016-12-10T10:27:42.856Z,1014.79
2016-12-10T10:28:42.840Z,1014.78
2016-12-10T10:29:42.823Z,1014.77
2016-12-10T10:30:42.805Z,1014.76
2016-12-10T10:31:42.794Z,1014.71
2016-12-10T10:32:42.774Z,1014.76
2016-12-10T10:33:42.760Z,1014.76
2016-12-10T10:34:42.744Z,1014.73
2016-12-10T10:35:42.737Z,1014.78
2016-12-10T10:36:42.715Z,1014.73
2016-12-10T10:37:42.696Z,1014.74
2016-12-10T10:38:42.684Z,1014.82
2016-12-10T10:39:42.682Z,1014.81
2016-12-10T10:40:42.650Z,1014.81
2016-12-10T10:41:42.634Z,1014.8
2016-12-10T10:42:42.619Z,1014.78
2016-12-10T10:43:42.604Z,1014.76
2016-12-10T10:44:42.585Z,1014.72
2016-12-10T10:45:42.774Z,1014.78
2016-12-10T10:46:42.556Z,1014.77
2016-12-10T10:47:42.540Z,1014.73
2016-12-10T10:48:42.525Z,1014.69
2016-12-10T10:49:42.508Z,1014.64
2016-12-10T10:50:42.494Z,1014.67
2016-12-10T10:51:42.480Z,1014.68
2016-12-10T10:52:42.462Z,1014.74
2016-12-10T10:53:42.446Z,1014.72
2016-12-10T10:54:42.428Z,1014.73
2016-12-10T10:55:42.415Z,1014.68
2016-12-10T10:56:42.403Z,1014.72
2016-12-10T10:57:42.386Z,1014.75
2016-12-10T10:58:42.369Z,1014.76
2016-12-10T10:59:42.352Z,1014.77
2016-12-10T11:00:42.340Z,1014.74
2016-12-10T11:01:42.321Z,1014.7
2016-12-10T11:02:42.308Z,1014.7
2016-12-10T11:03:42.291Z,1014.7
2016-12-10T11:04:42.276Z,1014.73
2016-12-10T11:05:42.258Z,1014.7
2016-12-10T11:06:42.245Z,1014.72
2016-12-10T11:07:42.228Z,1014.78
2016-12-10T11:08:42.214Z,1014.81
2016-12-10T11:09:42.198Z,1014.87
2016-12-10T11:10:42.181Z,1014.81
2016-12-10T11:11:42.168Z,1014.76
2016-12-10T11:12:42.151Z,1014.74
2016-12-10T11:13:42.137Z,1014.67
2016-12-10T11:14:42.121Z,1014.66
2016-12-10T11:15:42.106Z,1014.69
2016-12-10T11:16:42.089Z,1014.72
2016-12-10T11:17:42.074Z,1014.69
2016-12-10T11:18:42.059Z,1014.77
2016-12-10T11:19:42.044Z,1014.8
2016-12-10T11:20:42.029Z,1014.73
2016-12-10T11:21:42.015Z,1014.79
2016-12-10T11:22:42.001Z,1014.69
2016-12-10T11:23:41.985Z,1014.72
2016-12-10T11:24:41.968Z,1014.71
2016-12-10T11:25:41.953Z,1014.71
2016-12-10T11:26:41.939Z,1014.74
2016-12-10T11:27:41.923Z,1014.77
2016-12-10T11:28:41.911Z,1014.7
2016-12-10T11:29:41.894Z,1014.69
2016-12-10T11:30:41.877Z,1014.72
2016-12-10T11:31:41.864Z,1014.73
2016-12-10T11:32:41.847Z,1014.71
2016-12-10T11:33:41.846Z,1014.71
2016-12-10T11:34:41.817Z,1014.71
2016-12-10T11:35:41.804Z,1014.74
2016-12-10T11:36:41.789Z,1014.73
2016-12-10T11:37:41.774Z,1014.77
2016-12-10T11:38:41.758Z,1014.8
2016-12-10T11:39:41.744Z,1014.7
2016-12-10T11:40:41.728Z,1014.8
2016-12-10T11:41:41.714Z,1014.74
2016-12-10T11:42:41.700Z,1014.72
2016-12-10T11:43:41.684Z,1014.79
2016-12-10T11:44:41.871Z,1014.69
2016-12-10T11:45:41.653Z,1014.74
2016-12-10T11:46:41.640Z,1014.74
2016-12-10T11:47:41.625Z,1014.72
2016-12-10T11:48:41.612Z,1014.67
2016-12-10T11:49:41.595Z,1014.7
2016-12-10T11:50:41.582Z,1014.68
2016-12-10T11:51:41.568Z,1014.64
2016-12-10T11:52:41.550Z,1014.63
2016-12-10T11:53:41.538Z,1014.63
2016-12-10T11:54:41.527Z,1014.6
2016-12-10T11:55:41.513Z,1014.66
2016-12-10T11:56:41.495Z,1014.68
2016-12-10T11:57:41.484Z,1014.72
2016-12-10T11:58:41.467Z,1014.74
2016-12-10T11:59:41.457Z,1014.77
2016-12-10T12:00:41.442Z,1014.8
2016-12-10T12:01:41.425Z,1014.88
2016-12-10T12:02:41.413Z,1014.74
2016-12-10T12:03:41.399Z,1014.71
2016-12-10T12:04:41.385Z,1014.74
2016-12-10T12:05:41.381Z,1014.73
2016-12-10T12:06:41.362Z,1014.74
2016-12-10T12:07:41.344Z,1014.7
2016-12-10T12:08:41.333Z,1014.67